Time;durP1;ratioP1;P1;durP2;ratioP2;P2;SDS_P1;SDS_P2;PMS_P1;PMS_P2;Temp;Humidity;BMP_temperature;BMP_pressure;BME280_temperature;BME280_humidity;BME280_pressure;Samples;Min_cycle;Max_cycle;Signal;HPM_P1;HPM_P2
2021/05/06 00:07:52;;;;;;;1.00;0.30;;;;;;;3.78;66.61;97124.78;10510425;28;20489;-77
2021/05/06 00:35:32;;;;;;;1.10;0.40;;;;;;;3.84;67.60;97130.78;10532378;28;20040;-77
2021/05/06 00:57:56;;;;;;;1.80;0.80;;;;;;;3.62;67.72;97149.72;10520103;28;20044;-78
2021/05/06 01:08:54;;;;;;;1.63;0.80;;;;;;;3.56;68.27;97146.44;10518965;28;20051;-78
2021/05/06 01:14:16;;;;;;;3.17;1.15;;;;;;;3.56;69.56;97142.94;10532606;28;20037;-76
2021/05/06 01:19:36;;;;;;;1.50;0.82;;;;;;;3.54;69.28;97140.75;10531417;28;20044;-78
2021/05/06 01:24:58;;;;;;;2.00;0.77;;;;;;;3.53;68.51;97158.59;10496174;28;20051;-77
2021/05/06 01:30:29;;;;;;;2.83;0.83;;;;;;;3.51;69.40;97150.16;10530526;28;20078;-77
2021/05/06 02:03:45;;;;;;;2.17;0.93;;;;;;;3.40;69.86;97156.13;10501952;28;20102;-77
2021/05/06 02:09:06;;;;;;;2.25;0.68;;;;;;;3.37;69.08;97166.22;10501127;28;20043;-77
2021/05/06 02:14:27;;;;;;;1.90;1.00;;;;;;;3.36;69.79;97150.25;10501026;28;20066;-77
2021/05/06 02:19:49;;;;;;;1.60;0.70;;;;;;;3.41;69.68;97157.59;10493491;28;20429;-76
2021/05/06 02:25:11;;;;;;;1.75;0.60;;;;;;;3.47;68.90;97149.81;10501615;28;20089;-76
2021/05/06 02:30:31;;;;;;;1.65;0.60;;;;;;;3.50;69.58;97154.22;10528298;28;20101;-77
2021/05/06 02:35:52;;;;;;;1.85;0.90;;;;;;;3.52;69.28;97151.63;10543234;28;20051;-77
2021/05/06 02:41:13;;;;;;;1.80;0.90;;;;;;;3.58;69.90;97152.16;10513671;28;20404;-77
2021/05/06 02:46:33;;;;;;;2.60;0.50;;;;;;;3.57;69.30;97141.66;10499657;28;20073;-77
2021/05/06 02:51:59;;;;;;;3.55;0.88;;;;;;;3.52;70.30;97135.06;10492678;28;20040;-77
2021/05/06 03:02:49;;;;;;;1.30;0.80;;;;;;;3.50;69.71;97126.63;10526869;28;20052;-77
2021/05/06 03:24:33;;;;;;;1.52;0.60;;;;;;;3.34;70.45;97158.34;10528823;28;20051;-77
2021/05/06 03:35:50;;;;;;;2.33;0.82;;;;;;;3.30;70.77;97156.00;10500345;28;20044;-77
2021/05/06 04:37:04;;;;;;;3.78;1.10;;;;;;;5.54;67.79;97198.31;10501671;28;20041;-77
2021/05/06 05:05:07;;;;;;;2.17;1.13;;;;;;;7.85;63.35;97202.75;10553011;28;20067;-78
2021/05/06 05:10:45;;;;;;;3.90;1.05;;;;;;;8.18;62.07;97189.00;10572814;28;20043;-78
2021/05/06 05:27:11;;;;;;;2.65;1.10;;;;;;;9.79;57.44;97191.75;10516976;28;20483;-78
2021/05/06 05:32:31;;;;;;;2.33;1.20;;;;;;;11.79;56.61;97172.47;10512783;28;20040;-75
2021/05/06 05:38:01;;;;;;;2.88;1.00;;;;;;;18.23;60.80;97186.38;10530022;28;20051;-76
2021/05/06 05:54:32;;;;;;;2.17;0.70;;;;;;;19.55;41.74;97197.63;10517590;28;20054;-75
2021/05/06 05:54:47;;;;;;;1.83;0.90;;;;;;;16.07;38.38;97201.81;10563140;28;20061;-76
2021/05/06 06:00:08;;;;;;;2.53;0.98;;;;;;;13.16;41.08;97197.69;10474183;28;20098;-75
2021/05/06 06:05:28;;;;;;;1.85;0.90;;;;;;;12.09;42.46;97190.19;10473339;28;20082;-76
2021/05/06 06:10:50;;;;;;;1.95;0.85;;;;;;;12.79;42.55;97201.47;10473107;28;20058;-76
2021/05/06 06:16:13;;;;;;;2.85;0.90;;;;;;;11.63;42.28;97195.41;10472865;28;20048;-75
2021/05/06 06:26:57;;;;;;;1.55;0.80;;;;;;;12.23;42.92;97190.91;10486507;28;20621;-75
2021/05/06 06:32:17;;;;;;;2.42;1.08;;;;;;;13.58;41.43;97206.69;10471951;28;20044;-76
2021/05/06 06:37:38;;;;;;;2.38;0.80;;;;;;;16.25;39.74;97194.03;10471899;28;20468;-75
2021/05/06 06:42:58;;;;;;;1.50;0.55;;;;;;;18.79;38.74;97178.06;10471696;28;20417;-75
2021/05/06 06:48:19;;;;;;;3.28;0.50;;;;;;;23.82;30.25;97169.38;10457154;28;20045;-77
2021/05/06 06:53:39;;;;;;;3.58;0.45;;;;;;;30.44;22.69;97163.56;10471054;28;20041;-77
2021/05/06 06:59:00;;;;;;;2.00;0.57;;;;;;;28.62;18.96;97153.63;10499545;28;20056;-76
2021/05/06 07:04:20;;;;;;;2.28;0.70;;;;;;;23.19;22.08;97155.38;10478185;28;20106;-76
2021/05/06 07:09:41;;;;;;;1.35;0.50;;;;;;;27.78;20.05;97158.84;10456799;28;20048;-75
2021/05/06 07:15:01;;;;;;;3.33;0.50;;;;;;;30.30;16.40;97152.31;10484296;28;20041;-75
2021/05/06 07:20:22;;;;;;;1.70;0.60;;;;;;;33.17;14.25;97162.38;10469784;28;20044;-75
2021/05/06 07:25:44;;;;;;;1.73;0.40;;;;;;;28.02;15.69;97175.81;10469934;28;20041;-76
2021/05/06 07:31:08;;;;;;;1.92;0.40;;;;;;;25.33;17.67;97154.22;10497210;28;20063;-75
2021/05/06 07:36:31;;;;;;;1.10;0.60;;;;;;;26.43;18.36;97167.63;10469745;28;20415;-75
2021/05/06 07:41:55;;;;;;;1.55;0.57;;;;;;;28.35;16.35;97164.00;10470121;28;20049;-76
2021/05/06 07:47:21;;;;;;;3.08;0.70;;;;;;;30.80;14.08;97170.03;10484039;28;20041;-75
2021/05/06 07:52:44;;;;;;;1.85;0.50;;;;;;;23.83;17.44;97171.53;10456047;28;20110;-76
2021/05/06 07:58:08;;;;;;;3.42;0.50;;;;;;;20.22;21.24;97146.03;10469531;28;20037;-75
2021/05/06 08:03:28;;;;;;;1.63;0.60;;;;;;;30.29;16.59;97145.16;10482507;28;20174;-76
2021/05/06 08:08:52;;;;;;;1.43;0.50;;;;;;;36.46;11.61;97145.53;10482838;28;20472;-75
